Time;durP1;ratioP1;P1;durP2;ratioP2;P2;SDS_P1;SDS_P2;PMS_P1;PMS_P2;Temp;Humidity;BMP_temperature;BMP_pressure;BME280_temperature;BME280_humidity;BME280_pressure;Samples;Min_cycle;Max_cycle;Signal;HPM_P1;HPM_P2
2021/10/29 00:00:15;;;;;;;;;;;16.50;99.90;;;;;;5017578;28;1977;-51
2021/10/29 00:02:43;;;;;;;;;;;16.50;99.90;;;;;;5026865;28;1334;-51
2021/10/29 00:05:10;;;;;;;;;;;16.50;99.90;;;;;;5034717;28;1047;-51
2021/10/29 00:07:48;;;;;;;;;;;16.40;99.90;;;;;;5035627;28;1008;-52
2021/10/29 00:10:14;;;;;;;;;;;16.40;99.90;;;;;;5035583;28;853;-51
2021/10/29 00:12:41;;;;;;;;;;;16.30;99.90;;;;;;5017512;28;767;-51
2021/10/29 00:15:07;;;;;;;;;;;16.30;99.90;;;;;;5016166;28;916;-51
2021/10/29 00:17:33;;;;;;;;;;;16.30;99.90;;;;;;5015901;28;874;-51
2021/10/29 00:19:59;;;;;;;;;;;16.30;99.90;;;;;;5017439;28;830;-51
2021/10/29 00:22:25;;;;;;;;;;;16.20;99.90;;;;;;5017189;28;1906;-51
2021/10/29 00:24:51;;;;;;;;;;;16.20;99.90;;;;;;5017177;28;896;-51
2021/10/29 00:27:18;;;;;;;;;;;16.20;99.90;;;;;;5017591;28;759;-51
2021/10/29 00:29:45;;;;;;;;;;;16.20;99.90;;;;;;5023934;28;1497;-51
2021/10/29 00:32:12;;;;;;;;;;;16.10;99.90;;;;;;5016693;28;1290;-52
2021/10/29 00:34:38;;;;;;;;;;;16.10;99.90;;;;;;5022802;28;1509;-51
2021/10/29 00:37:04;;;;;;;;;;;16.10;99.90;;;;;;5035124;28;821;-51
2021/10/29 00:39:30;;;;;;;;;;;16.10;99.90;;;;;;5022672;28;1422;-51
2021/10/29 00:41:56;;;;;;;;;;;16.00;99.90;;;;;;5017328;28;1970;-51
2021/10/29 00:44:23;;;;;;;;;;;16.00;99.90;;;;;;5017224;28;817;-51
2021/10/29 00:46:51;;;;;;;;;;;16.00;99.90;;;;;;5021723;28;1168;-51
2021/10/29 00:49:19;;;;;;;;;;;15.90;99.90;;;;;;5033146;28;1117;-51
2021/10/29 00:51:45;;;;;;;;;;;15.90;99.90;;;;;;5035419;28;928;-51
2021/10/29 00:54:15;;;;;;;;;;;15.90;99.90;;;;;;5035096;28;881;-51
2021/10/29 00:56:41;;;;;;;;;;;15.90;99.90;;;;;;5035268;28;868;-51
2021/10/29 00:59:07;;;;;;;;;;;15.90;99.90;;;;;;5035268;28;929;-51
2021/10/29 01:01:33;;;;;;;;;;;15.90;99.90;;;;;;5034279;28;1910;-51
2021/10/29 01:03:59;;;;;;;;;;;15.90;99.90;;;;;;5017352;28;832;-51
2021/10/29 01:06:25;;;;;;;;;;;15.80;99.90;;;;;;5031720;28;784;-51
2021/10/29 01:08:52;;;;;;;;;;;15.80;99.90;;;;;;5035305;28;862;-51
2021/10/29 01:11:20;;;;;;;;;;;15.80;99.90;;;;;;5027676;28;895;-51
2021/10/29 01:13:47;;;;;;;;;;;15.80;99.90;;;;;;5017143;28;937;-51
2021/10/29 01:16:14;;;;;;;;;;;15.70;99.90;;;;;;5016656;28;934;-51
2021/10/29 01:18:40;;;;;;;;;;;15.70;99.90;;;;;;5014541;28;1149;-51
2021/10/29 01:21:06;;;;;;;;;;;15.70;99.90;;;;;;5015983;28;1962;-51
2021/10/29 01:23:32;;;;;;;;;;;15.70;99.90;;;;;;5020699;28;937;-51
2021/10/29 01:26:03;;;;;;;;;;;15.60;99.90;;;;;;5020909;28;853;-51
2021/10/29 01:28:29;;;;;;;;;;;15.60;99.90;;;;;;5020846;28;901;-51
2021/10/29 01:30:55;;;;;;;;;;;15.60;99.90;;;;;;5020553;28;821;-51
2021/10/29 01:33:23;;;;;;;;;;;15.60;99.90;;;;;;5020610;28;975;-51
2021/10/29 01:35:50;;;;;;;;;;;15.60;99.90;;;;;;5030507;28;924;-51
2021/10/29 01:38:19;;;;;;;;;;;15.60;99.90;;;;;;5039025;28;945;-51
2021/10/29 01:40:45;;;;;;;;;;;15.50;99.90;;;;;;5028604;28;1965;-51
2021/10/29 01:43:11;;;;;;;;;;;15.50;99.90;;;;;;5020309;28;789;-51
2021/10/29 01:45:37;;;;;;;;;;;15.50;99.90;;;;;;5020282;28;877;-51
2021/10/29 01:48:03;;;;;;;;;;;15.50;99.90;;;;;;5020216;28;885;-51
2021/10/29 01:50:29;;;;;;;;;;;15.50;99.90;;;;;;5018630;28;933;-51
2021/10/29 01:52:56;;;;;;;;;;;15.50;99.90;;;;;;5020131;28;814;-51
2021/10/29 01:55:23;;;;;;;;;;;15.50;99.90;;;;;;5020211;28;800;-51
2021/10/29 01:57:51;;;;;;;;;;;15.50;99.90;;;;;;5018339;28;1073;-51
2021/10/29 02:00:18;;;;;;;;;;;15.40;99.90;;;;;;5017807;28;1174;-51
2021/10/29 02:02:44;;;;;;;;;;;15.40;99.90;;;;;;5017414;28;1906;-51
2021/10/29 02:05:10;;;;;;;;;;;15.40;99.90;;;;;;5023310;28;960;-51
2021/10/29 02:07:36;;;;;;;;;;;15.40;99.90;;;;;;5035750;28;1008;-51
2021/10/29 02:10:03;;;;;;;;;;;15.40;99.90;;;;;;5034066;28;933;-51
2021/10/29 02:12:30;;;;;;;;;;;15.40;99.90;;;;;;5018092;28;1036;-51
2021/10/29 02:14:56;;;;;;;;;;;15.40;99.90;;;;;;5018178;28;1088;-51
2021/10/29 02:17:24;;;;;;;;;;;15.40;99.90;;;;;;5017638;28;1012;-50
2021/10/29 02:19:52;;;;;;;;;;;15.40;99.90;;;;;;5017999;28;961;-51
2021/10/29 02:22:18;;;;;;;;;;;15.40;99.90;;;;;;4985099;28;1906;-51
2021/10/29 02:24:43;;;;;;;;;;;15.40;99.90;;;;;;5017871;28;940;-51
2021/10/29 02:27:09;;;;;;;;;;;15.40;99.90;;;;;;5001531;28;1011;-51
2021/10/29 02:29:35;;;;;;;;;;;15.30;99.90;;;;;;5019142;28;980;-51
2021/10/29 02:32:02;;;;;;;;;;;15.30;99.90;;;;;;5019611;28;1129;-51
2021/10/29 02:34:29;;;;;;;;;;;15.30;99.90;;;;;;5024392;28;1433;-51
2021/10/29 02:36:56;;;;;;;;;;;15.30;99.90;;;;;;5037366;28;862;-50
2021/10/29 02:39:24;;;;;;;;;;;15.30;99.90;;;;;;5037269;28;887;-51
2021/10/29 02:41:51;;;;;;;;;;;15.30;99.90;;;;;;5019288;28;1964;-51
2021/10/29 02:44:18;;;;;;;;;;;15.30;99.90;;;;;;5019481;28;815;-50
2021/10/29 02:46:44;;;;;;;;;;;15.30;99.90;;;;;;5050253;28;957;-51
2021/10/29 02:49:10;;;;;;;;;;;15.30;99.90;;;;;;5019100;28;862;-51
2021/10/29 02:51:36;;;;;;;;;;;15.30;99.90;;;;;;5018883;28;759;-51
2021/10/29 02:54:02;;;;;;;;;;;15.30;99.90;;;;;;5018838;28;865;-51
2021/10/29 02:56:28;;;;;;;;;;;15.30;99.90;;;;;;5024473;28;1255;-51
2021/10/29 02:58:55;;;;;;;;;;;15.30;99.90;;;;;;5018851;28;1056;-51
2021/10/29 03:01:22;;;;;;;;;;;15.30;99.90;;;;;;5018442;28;1910;-51
2021/10/29 03:03:48;;;;;;;;;;;15.20;99.90;;;;;;5020157;28;1655;-51
2021/10/29 03:06:14;;;;;;;;;;;15.20;99.90;;;;;;5032155;28;865;-51
2021/10/29 03:08:40;;;;;;;;;;;15.20;99.90;;;;;;5020363;28;1401;-51
2021/10/29 03:11:06;;;;;;;;;;;15.20;99.90;;;;;;5025707;28;766;-51
2021/10/29 03:13:34;;;;;;;;;;;15.20;99.90;;;;;;5018674;28;782;-51
2021/10/29 03:15:59;;;;;;;;;;;15.20;99.90;;;;;;5018654;28;771;-51
2021/10/29 03:18:26;;;;;;;;;;;15.20;99.90;;;;;;5018577;28;920;-51
2021/10/29 03:20:54;;;;;;;;;;;15.10;99.90;;;;;;5018326;28;1919;-51
2021/10/29 03:23:22;;;;;;;;;;;15.10;99.90;;;;;;5033486;28;1043;-52
2021/10/29 03:25:48;;;;;;;;;;;15.10;99.90;;;;;;5032976;28;846;-51
2021/10/29 03:28:16;;;;;;;;;;;15.10;99.90;;;;;;5018941;28;919;-50
2021/10/29 03:30:42;;;;;;;;;;;15.10;99.90;;;;;;5036506;28;963;-50
2021/10/29 03:33:09;;;;;;;;;;;15.10;99.90;;;;;;5036075;28;878;-50
2021/10/29 03:35:36;;;;;;;;;;;15.10;99.90;;;;;;5036714;28;862;-51
2021/10/29 03:43:50;;;;;;;;;;;15.10;99.90;;;;;;4994697;28;915;-51
2021/10/29 03:46:18;;;;;;;;;;;15.00;99.90;;;;;;4991273;28;1112;-51
2021/10/29 03:48:57;;;;;;;;;;;15.00;99.90;;;;;;4995454;28;867;-51
2021/10/29 03:51:36;;;;;;;;;;;15.00;99.90;;;;;;4994229;28;1024;-50
2021/10/29 03:54:14;;;;;;;;;;;15.10;99.90;;;;;;4995153;28;937;-51
2021/10/29 03:59:32;;;;;;;;;;;15.00;99.90;;;;;;4956930;29;1222;-51
2021/10/29 04:02:00;;;;;;;;;;;15.00;99.90;;;;;;4955647;28;1919;-51
2021/10/29 04:04:25;;;;;;;;;;;15.00;99.90;;;;;;4958256;28;1665;-51
2021/10/29 04:06:54;;;;;;;;;;;15.00;99.90;;;;;;4940489;29;1074;-51
2021/10/29 04:09:20;;;;;;;;;;;15.00;99.90;;;;;;4939894;29;964;-51
2021/10/29 04:11:46;;;;;;;;;;;15.00;99.90;;;;;;4956649;29;990;-51
2021/10/29 04:14:13;;;;;;;;;;;15.00;99.90;;;;;;4956715;29;1118;-51
2021/10/29 04:16:40;;;;;;;;;;;14.90;99.90;;;;;;4956435;29;942;-51
2021/10/29 04:19:08;;;;;;;;;;;15.00;99.90;;;;;;4965785;28;1105;-51
2021/10/29 04:21:37;;;;;;;;;;;14.90;99.90;;;;;;4975128;28;1975;-51
2021/10/29 04:24:07;;;;;;;;;;;14.90;99.90;;;;;;4974959;28;971;-51
2021/10/29 04:26:35;;;;;;;;;;;14.90;99.90;;;;;;4975071;28;900;-51
2021/10/29 04:29:14;;;;;;;;;;;14.90;99.90;;;;;;4975058;28;965;-50
2021/10/29 04:31:50;;;;;;;;;;;14.90;99.90;;;;;;4975106;28;875;-51
2021/10/29 04:34:17;;;;;;;;;;;14.90;99.90;;;;;;4974783;28;945;-51
2021/10/29 04:36:43;;;;;;;;;;;14.90;99.90;;;;;;5008296;28;967;-52
2021/10/29 04:39:13;;;;;;;;;;;14.90;99.90;;;;;;5035183;28;782;-50
2021/10/29 04:41:43;;;;;;;;;;;14.90;99.90;;;;;;5018836;28;1950;-50
2021/10/29 04:44:10;;;;;;;;;;;14.90;99.90;;;;;;5017299;28;900;-50
2021/10/29 04:46:37;;;;;;;;;;;14.90;99.90;;;;;;5032027;28;1104;-51
2021/10/29 04:49:04;;;;;;;;;;;14.90;99.90;;;;;;5017028;28;730;-51
2021/10/29 04:51:31;;;;;;;;;;;14.90;99.90;;;;;;5017015;28;874;-51
2021/10/29 04:54:00;;;;;;;;;;;14.90;99.90;;;;;;5031223;28;922;-49
2021/10/29 04:56:27;;;;;;;;;;;14.90;99.90;;;;;;5016818;28;803;-49
2021/10/29 04:58:53;;;;;;;;;;;14.90;99.90;;;;;;5031892;28;1041;-49
2021/10/29 05:01:19;;;;;;;;;;;14.90;99.90;;;;;;5017467;28;1906;-50
2021/10/29 05:03:45;;;;;;;;;;;14.90;99.90;;;;;;5020984;28;1106;-49
2021/10/29 05:06:11;;;;;;;;;;;14.80;99.90;;;;;;5030712;28;886;-49
2021/10/29 05:08:38;;;;;;;;;;;14.80;99.90;;;;;;5034517;28;1769;-49
2021/10/29 05:11:04;;;;;;;;;;;14.80;99.90;;;;;;5025459;28;1246;-49
2021/10/29 05:13:30;;;;;;;;;;;14.80;99.90;;;;;;5017314;28;814;-49
2021/10/29 05:15:58;;;;;;;;;;;14.80;99.90;;;;;;5016995;28;846;-49
2021/10/29 05:18:23;;;;;;;;;;;14.80;99.90;;;;;;5017049;28;831;-50
2021/10/29 05:20:50;;;;;;;;;;;14.80;99.90;;;;;;5017292;28;887;-50
2021/10/29 05:23:16;;;;;;;;;;;14.80;99.90;;;;;;5016633;28;1899;-49
2021/10/29 05:25:42;;;;;;;;;;;14.80;99.90;;;;;;5016908;28;793;-50
2021/10/29 05:28:11;;;;;;;;;;;14.80;99.90;;;;;;5016730;28;849;-50
2021/10/29 05:30:38;;;;;;;;;;;14.80;99.90;;;;;;5016973;28;855;-50
2021/10/29 05:33:05;;;;;;;;;;;14.80;99.90;;;;;;5016661;28;743;-50
2021/10/29 05:35:33;;;;;;;;;;;14.80;99.90;;;;;;5024584;28;837;-50
2021/10/29 05:37:59;;;;;;;;;;;14.80;99.90;;;;;;5034570;28;813;-50
2021/10/29 05:40:25;;;;;;;;;;;14.90;99.90;;;;;;5028065;28;750;-50
2021/10/29 05:42:51;;;;;;;;;;;15.00;99.90;;;;;;5016445;28;1973;-50
2021/10/29 05:45:17;;;;;;;;;;;15.10;99.90;;;;;;5016401;28;1023;-51
2021/10/29 05:47:43;;;;;;;;;;;15.20;99.90;;;;;;5016977;28;881;-50
2021/10/29 05:50:11;;;;;;;;;;;15.30;99.90;;;;;;5016520;28;764;-50
2021/10/29 05:52:41;;;;;;;;;;;15.50;99.90;;;;;;5015822;28;900;-50
2021/10/29 05:57:49;;;;;;;;;;;15.70;99.90;;;;;;5020676;28;1413;-51
2021/10/29 06:00:17;;;;;;;;;;;15.80;99.90;;;;;;5018859;28;1234;-51
2021/10/29 06:02:43;;;;;;;;;;;15.90;99.90;;;;;;5024296;28;1906;-51
2021/10/29 06:05:11;;;;;;;;;;;16.00;99.90;;;;;;5015560;28;862;-51
2021/10/29 06:07:39;;;;;;;;;;;16.10;99.90;;;;;;5016785;28;902;-51
2021/10/29 06:10:08;;;;;;;;;;;16.10;99.90;;;;;;5026568;28;945;-50
2021/10/29 06:12:35;;;;;;;;;;;16.10;99.90;;;;;;5065578;22;2782;-50
2021/10/29 06:15:02;;;;;;;;;;;16.20;99.90;;;;;;5058159;28;869;-51
2021/10/29 06:17:30;;;;;;;;;;;16.20;99.90;;;;;;5058253;28;951;-51
2021/10/29 06:19:57;;;;;;;;;;;16.30;99.90;;;;;;5058692;28;877;-51
2021/10/29 06:22:27;;;;;;;;;;;16.30;99.90;;;;;;5058257;28;1913;-51
2021/10/29 06:24:54;;;;;;;;;;;16.30;99.90;;;;;;5058691;28;898;-50
2021/10/29 06:29:47;;;;;;;;;;;16.40;99.90;;;;;;5040966;28;897;-50
2021/10/29 06:32:14;;;;;;;;;;;16.50;99.90;;;;;;5058375;28;888;-50
2021/10/29 06:34:40;;;;;;;;;;;16.50;99.90;;;;;;5058326;28;888;-51
2021/10/29 06:37:14;;;;;;;;;;;16.60;99.90;;;;;;5058514;28;794;-51
2021/10/29 06:39:41;;;;;;;;;;;16.60;99.90;;;;;;5058516;28;751;-51
2021/10/29 06:42:14;;;;;;;;;;;16.70;99.90;;;;;;5040460;28;1906;-51
2021/10/29 06:45:11;;;;;;;;;;;16.70;99.90;;;;;;5058092;28;853;-50
2021/10/29 06:47:44;;;;;;;;;;;16.80;99.90;;;;;;5058056;28;845;-50
2021/10/29 07:01:21;;;;;;;;;;;17.20;99.90;;;;;;5055696;28;1401;-50
2021/10/29 07:42:02;;;;;;;;;;;17.00;99.90;;;;;;5053091;28;1965;-50
2021/10/29 07:44:35;;;;;;;;;;;16.90;99.90;;;;;;5057205;28;841;-50
2021/10/29 07:47:07;;;;;;;;;;;16.90;99.90;;;;;;5056282;28;926;-51
2021/10/29 07:49:33;;;;;;;;;;;16.80;99.90;;;;;;5022372;28;1312;-50
2021/10/29 07:52:00;;;;;;;;;;;16.80;99.90;;;;;;5035601;28;1295;-50
2021/10/29 07:54:27;;;;;;;;;;;16.70;99.90;;;;;;5054428;28;1137;-50
2021/10/29 07:56:55;;;;;;;;;;;16.70;99.90;;;;;;5052892;28;1020;-50
2021/10/29 07:59:22;;;;;;;;;;;16.70;99.90;;;;;;5055476;28;1306;-50
2021/10/29 08:01:49;;;;;;;;;;;16.70;99.90;;;;;;5024076;28;1918;-50
2021/10/29 08:04:16;;;;;;;;;;;16.80;99.90;;;;;;5017749;28;924;-50
2021/10/29 08:06:43;;;;;;;;;;;16.90;99.90;;;;;;5052282;28;1062;-51
2021/10/29 08:09:11;;;;;;;;;;;17.30;99.90;;;;;;5053580;28;1496;-51
2021/10/29 08:11:38;;;;;;;;;;;17.50;99.90;;;;;;5054538;28;1170;-51
2021/10/29 08:14:05;;;;;;;;;;;17.70;99.90;;;;;;5055347;28;1105;-51
2021/10/29 08:16:32;;;;;;;;;;;17.80;99.90;;;;;;5053082;28;1049;-50
2021/10/29 08:19:00;;;;;;;;;;;17.70;99.90;;;;;;5055224;28;1191;-50
2021/10/29 08:21:28;;;;;;;;;;;17.60;99.90;;;;;;5054511;28;1191;-51
2021/10/29 08:23:55;;;;;;;;;;;17.60;99.90;;;;;;5053098;28;1597;-51
2021/10/29 08:26:21;;;;;;;;;;;17.60;99.90;;;;;;5052331;28;777;-51
2021/10/29 08:28:49;;;;;;;;;;;17.60;99.90;;;;;;5051559;28;1125;-51
2021/10/29 08:31:15;;;;;;;;;;;17.50;99.90;;;;;;5054432;28;1017;-51
2021/10/29 08:33:41;;;;;;;;;;;17.50;99.90;;;;;;5016402;28;1641;-50
2021/10/29 08:36:08;;;;;;;;;;;17.50;99.90;;;;;;5050484;28;1304;-50
2021/10/29 08:38:36;;;;;;;;;;;17.70;99.90;;;;;;5055233;28;1206;-50
2021/10/29 08:41:03;;;;;;;;;;;17.70;99.90;;;;;;5054861;28;1195;-49
2021/10/29 08:43:32;;;;;;;;;;;17.70;99.90;;;;;;5051464;28;1973;-51
2021/10/29 08:46:00;;;;;;;;;;;17.70;99.90;;;;;;5054899;28;1210;-50
2021/10/29 08:48:28;;;;;;;;;;;17.60;99.90;;;;;;5050700;28;1136;-50
2021/10/29 08:50:56;;;;;;;;;;;17.50;99.90;;;;;;5054503;28;1266;-50
2021/10/29 08:53:44;;;;;;;;;;;17.40;99.90;;;;;;5050049;28;1089;-50
2021/10/29 08:56:11;;;;;;;;;;;17.40;99.90;;;;;;5052831;28;1316;-50
2021/10/29 08:58:56;;;;;;;;;;;17.30;99.90;;;;;;5046266;28;1103;-50
2021/10/29 09:01:54;;;;;;;;;;;17.30;99.90;;;;;;5053807;28;1393;-50
2021/10/29 09:04:23;;;;;;;;;;;17.30;99.90;;;;;;5043039;28;1738;-50
2021/10/29 09:09:53;;;;;;;;;;;17.20;99.90;;;;;;5050895;28;1150;-50
2021/10/29 09:31:20;;;;;;;;;;;17.10;99.90;;;;;;5052341;28;1353;-50
2021/10/29 09:31:37;;;;;;;;;;;17.10;99.90;;;;;;5054062;28;1028;-50
2021/10/29 09:34:09;;;;;;;;;;;17.10;99.90;;;;;;5054871;28;1004;-50
2021/10/29 09:36:55;;;;;;;;;;;17.10;99.90;;;;;;5054648;28;978;-50
2021/10/29 09:39:24;;;;;;;;;;;17.00;99.90;;;;;;5054195;28;1374;-50
2021/10/29 09:42:05;;;;;;;;;;;17.00;99.90;;;;;;5055063;28;1895;-50
2021/10/29 09:44:45;;;;;;;;;;;17.00;99.90;;;;;;5057545;28;983;-51
2021/10/29 09:47:12;;;;;;;;;;;17.00;99.90;;;;;;5040365;28;968;-50
2021/10/29 09:49:50;;;;;;;;;;;17.00;99.90;;;;;;5059333;28;905;-50
2021/10/29 09:52:35;;;;;;;;;;;17.00;99.90;;;;;;5059294;28;1114;-51
2021/10/29 09:57:46;;;;;;;;;;;16.90;99.90;;;;;;5058597;28;1033;-50
2021/10/29 10:00:15;;;;;;;;;;;16.90;99.90;;;;;;5060149;28;893;-50
2021/10/29 10:02:42;;;;;;;;;;;16.90;99.90;;;;;;5054298;28;1902;-51
2021/10/29 10:05:11;;;;;;;;;;;16.90;99.90;;;;;;5056045;28;1738;-50
2021/10/29 10:07:38;;;;;;;;;;;16.90;99.90;;;;;;5054996;28;1472;-50
2021/10/29 10:10:06;;;;;;;;;;;16.90;99.90;;;;;;5054801;28;1464;-50
2021/10/29 10:12:35;;;;;;;;;;;16.90;99.90;;;;;;5056063;28;1563;-50
2021/10/29 10:15:07;;;;;;;;;;;16.90;99.90;;;;;;5038527;28;1286;-50
2021/10/29 10:17:35;;;;;;;;;;;16.80;99.90;;;;;;5054746;28;1344;-50
2021/10/29 10:20:05;;;;;;;;;;;16.80;99.90;;;;;;5039425;28;1172;-51
2021/10/29 10:22:40;;;;;;;;;;;16.80;99.90;;;;;;5057710;28;1938;-50
2021/10/29 10:25:14;;;;;;;;;;;16.90;99.90;;;;;;4991340;28;1133;-51
2021/10/29 10:28:38;;;;;;;;;;;16.90;99.90;;;;;;5037589;28;1014;-51
2021/10/29 10:40:11;;;;;;;;;;;16.90;99.90;;;;;;5043075;28;2400;-51
2021/10/29 10:42:35;;;;;;;;;;;17.00;99.90;;;;;;5057743;28;1967;-51
2021/10/29 10:45:31;;;;;;;;;;;17.10;99.90;;;;;;5050903;28;1076;-51
2021/10/29 10:48:11;;;;;;;;;;;17.10;99.90;;;;;;5041941;28;1152;-51
2021/10/29 10:50:44;;;;;;;;;;;17.20;99.90;;;;;;5057919;28;993;-51
2021/10/29 10:53:37;;;;;;;;;;;17.20;99.90;;;;;;5014761;28;1498;-51
2021/10/29 10:59:12;;;;;;;;;;;17.20;99.90;;;;;;5056776;28;1520;-52
2021/10/29 11:09:52;;;;;;;;;;;17.20;99.90;;;;;;5053506;28;1386;-52
2021/10/29 11:10:17;;;;;;;;;;;17.20;99.90;;;;;;5057452;28;835;-52
2021/10/29 11:12:44;;;;;;;;;;;17.10;99.90;;;;;;5056410;28;1636;-51
2021/10/29 11:15:17;;;;;;;;;;;17.10;99.90;;;;;;5056697;28;919;-52
2021/10/29 11:17:53;;;;;;;;;;;17.10;99.90;;;;;;5057318;28;834;-51
2021/10/29 11:20:39;;;;;;;;;;;17.10;99.90;;;;;;5057091;28;853;-50
2021/10/29 11:23:25;;;;;;;;;;;17.00;99.90;;;;;;5039757;28;1945;-50
2021/10/29 11:25:53;;;;;;;;;;;17.10;99.90;;;;;;5057059;28;1269;-51
2021/10/29 11:28:29;;;;;;;;;;;17.00;99.90;;;;;;5007787;28;1628;-51
2021/10/29 11:30:57;;;;;;;;;;;17.00;99.90;;;;;;5061046;28;994;-50
2021/10/29 11:33:25;;;;;;;;;;;17.00;99.90;;;;;;5051349;28;1085;-52
2021/10/29 11:35:55;;;;;;;;;;;17.00;99.90;;;;;;5017055;28;1326;-52
2021/10/29 11:38:21;;;;;;;;;;;17.00;99.90;;;;;;5056816;28;886;-52
2021/10/29 11:40:49;;;;;;;;;;;17.00;99.90;;;;;;5032732;28;1361;-51
2021/10/29 11:43:27;;;;;;;;;;;17.00;99.90;;;;;;5045881;28;1898;-52
2021/10/29 11:45:56;;;;;;;;;;;16.90;99.90;;;;;;5048573;28;1511;-52
2021/10/29 11:48:22;;;;;;;;;;;16.90;99.90;;;;;;5020872;28;1230;-51
2021/10/29 11:51:11;;;;;;;;;;;16.90;99.90;;;;;;5056314;28;878;-51
2021/10/29 11:53:49;;;;;;;;;;;16.90;99.90;;;;;;5056071;28;746;-51
2021/10/29 12:07:13;;;;;;;;;;;17.00;99.90;;;;;;5051857;28;1105;-50
2021/10/29 12:09:40;;;;;;;;;;;17.00;99.90;;;;;;5055948;28;1125;-51
2021/10/29 12:12:28;;;;;;;;;;;17.00;99.90;;;;;;5055102;28;1580;-52
2021/10/29 12:15:17;;;;;;;;;;;17.00;99.90;;;;;;5052482;28;1126;-51
2021/10/29 12:18:05;;;;;;;;;;;17.00;99.90;;;;;;5055234;28;918;-51
2021/10/29 12:20:36;;;;;;;;;;;17.00;99.90;;;;;;5054898;28;1364;-51
2021/10/29 12:23:10;;;;;;;;;;;17.00;99.90;;;;;;5018265;28;1914;-51
2021/10/29 12:26:04;;;;;;;;;;;17.00;99.90;;;;;;5040376;28;1150;-52
2021/10/29 12:34:14;;;;;;;;;;;17.00;99.90;;;;;;5033742;28;997;-52
2021/10/29 13:01:42;;;;;;;;;;;17.10;99.90;;;;;;5033651;28;805;-51
2021/10/29 13:04:15;;;;;;;;;;;17.10;99.90;;;;;;5033493;28;1973;-52
2021/10/29 13:07:01;;;;;;;;;;;17.10;99.90;;;;;;5055083;28;1117;-51
2021/10/29 13:09:28;;;;;;;;;;;17.10;99.90;;;;;;5051893;28;1098;-51
2021/10/29 13:11:58;;;;;;;;;;;17.10;99.90;;;;;;5053608;28;1196;-51
2021/10/29 13:14:43;;;;;;;;;;;17.10;99.90;;;;;;5054703;28;1771;-51
2021/10/29 13:17:14;;;;;;;;;;;17.10;99.90;;;;;;5057096;28;911;-51
2021/10/29 13:52:42;;;;;;;;;;;17.00;99.90;;;;;;5052205;28;1371;-51
2021/10/29 14:03:12;;;;;;;;;;;17.00;99.90;;;;;;5057777;28;1922;-51
2021/10/29 14:33:08;;;;;;;;;;;19.10;99.90;;;;;;5053957;28;1194;-51
2021/10/29 14:35:44;;;;;;;;;;;19.20;99.90;;;;;;5053555;28;1252;-51
2021/10/29 14:41:03;;;;;;;;;;;19.10;99.90;;;;;;5056092;28;1540;-51
2021/10/29 14:44:10;;;;;;;;;;;19.10;99.90;;;;;;5055235;28;1961;-51
2021/10/29 14:46:44;;;;;;;;;;;19.00;99.90;;;;;;5053502;28;1401;-50
2021/10/29 14:49:43;;;;;;;;;;;19.00;99.90;;;;;;5020606;28;1294;-51
2021/10/29 15:16:09;;;;;;;;;;;19.00;99.90;;;;;;5055317;28;1061;-52
2021/10/29 15:24:34;;;;;;;;;;;19.00;99.90;;;;;;5053713;28;1136;-52
2021/10/29 15:27:05;;;;;;;;;;;19.10;99.90;;;;;;5053877;28;1250;-52
2021/10/29 15:29:49;;;;;;;;;;;19.10;99.90;;;;;;5052417;28;1229;-52
2021/10/29 15:43:32;;;;;;;;;;;19.20;99.90;;;;;;5051129;28;1910;-52
2021/10/29 15:46:12;;;;;;;;;;;19.20;99.90;;;;;;5055335;28;1160;-52
2021/10/29 15:51:38;;;;;;;;;;;19.20;99.90;;;;;;5053904;28;1241;-53
2021/10/29 15:54:08;;;;;;;;;;;19.30;99.90;;;;;;5029435;28;1306;-52
2021/10/29 15:56:55;;;;;;;;;;;19.30;99.90;;;;;;5055385;28;1334;-52
2021/10/29 16:18:50;;;;;;;;;;;18.60;99.90;;;;;;5053588;28;1048;-52
2021/10/29 16:21:17;;;;;;;;;;;18.70;99.90;;;;;;5051922;28;1104;-51
2021/10/29 16:23:44;;;;;;;;;;;18.70;99.90;;;;;;5052583;28;1910;-51
2021/10/29 16:26:16;;;;;;;;;;;18.60;99.90;;;;;;5055686;28;860;-51
2021/10/29 16:28:56;;;;;;;;;;;18.70;99.90;;;;;;5053633;28;1128;-54
2021/10/29 16:31:23;;;;;;;;;;;18.70;99.90;;;;;;5054750;28;1194;-53
2021/10/29 16:33:52;;;;;;;;;;;18.80;99.90;;;;;;5054843;28;1039;-53
2021/10/29 16:36:18;;;;;;;;;;;19.10;99.90;;;;;;5055259;28;887;-53
2021/10/29 16:38:45;;;;;;;;;;;19.60;99.90;;;;;;5055245;28;1047;-53
2021/10/29 16:41:11;;;;;;;;;;;20.00;99.90;;;;;;5020998;28;976;-53
2021/10/29 16:43:40;;;;;;;;;;;20.30;99.90;;;;;;5054725;28;1977;-53
2021/10/29 16:46:08;;;;;;;;;;;20.50;99.90;;;;;;5054327;28;1063;-52
2021/10/29 16:48:35;;;;;;;;;;;20.50;99.90;;;;;;5055786;28;1123;-53
2021/10/29 16:51:02;;;;;;;;;;;20.50;99.90;;;;;;5054858;28;735;-54
2021/10/29 16:53:28;;;;;;;;;;;20.60;99.90;;;;;;5054407;28;818;-53
2021/10/29 16:55:56;;;;;;;;;;;20.60;99.90;;;;;;5054624;28;1059;-53
2021/10/29 16:58:23;;;;;;;;;;;20.60;99.90;;;;;;5054416;28;1057;-53
2021/10/29 17:00:50;;;;;;;;;;;20.60;99.90;;;;;;5054854;28;1147;-53
2021/10/29 17:03:17;;;;;;;;;;;20.60;99.90;;;;;;5054260;28;1890;-53
2021/10/29 17:05:44;;;;;;;;;;;20.60;99.90;;;;;;5054841;28;863;-53
2021/10/29 17:08:12;;;;;;;;;;;20.50;99.90;;;;;;5055289;28;911;-53
2021/10/29 17:10:41;;;;;;;;;;;20.40;99.90;;;;;;5050143;28;1222;-53
2021/10/29 17:13:09;;;;;;;;;;;20.30;99.90;;;;;;5045803;28;1477;-53
2021/10/29 17:15:38;;;;;;;;;;;20.30;99.90;;;;;;5051786;28;1199;-53
2021/10/29 17:18:04;;;;;;;;;;;20.30;99.90;;;;;;5052828;28;1066;-53
2021/10/29 17:20:31;;;;;;;;;;;20.30;99.90;;;;;;5036554;28;858;-52
2021/10/29 17:22:58;;;;;;;;;;;20.30;99.90;;;;;;5054329;28;2003;-52
2021/10/29 17:25:25;;;;;;;;;;;20.30;99.90;;;;;;5054389;28;992;-52
2021/10/29 17:27:52;;;;;;;;;;;20.30;99.90;;;;;;5054720;28;785;-52
2021/10/29 17:30:18;;;;;;;;;;;20.30;99.90;;;;;;5058754;28;1380;-52
2021/10/29 17:32:46;;;;;;;;;;;20.30;99.90;;;;;;5054783;28;851;-52
2021/10/29 17:35:14;;;;;;;;;;;20.30;99.90;;;;;;5054735;28;1013;-52
2021/10/29 17:37:41;;;;;;;;;;;20.30;99.90;;;;;;5054618;28;1023;-52
2021/10/29 17:40:08;;;;;;;;;;;20.30;99.90;;;;;;5055176;28;890;-52
2021/10/29 17:42:36;;;;;;;;;;;20.30;99.90;;;;;;5053729;28;1390;-52
2021/10/29 17:45:06;;;;;;;;;;;20.30;99.90;;;;;;5036616;28;1910;-51
2021/10/29 17:47:35;;;;;;;;;;;20.30;99.90;;;;;;5030658;28;1262;-51
2021/10/29 17:50:02;;;;;;;;;;;20.30;99.90;;;;;;5054109;28;1032;-51
2021/10/29 17:52:28;;;;;;;;;;;20.20;99.90;;;;;;5003646;28;1367;-52
2021/10/29 17:54:59;;;;;;;;;;;20.20;99.90;;;;;;5000943;28;1466;-52
2021/10/29 17:57:27;;;;;;;;;;;20.10;99.90;;;;;;5048669;28;1223;-52
2021/10/29 17:59:54;;;;;;;;;;;20.10;99.90;;;;;;5054645;28;1191;-52
2021/10/29 18:02:23;;;;;;;;;;;19.90;99.90;;;;;;5019999;28;890;-52
2021/10/29 18:04:51;;;;;;;;;;;19.60;99.90;;;;;;5056215;28;1902;-51
2021/10/29 18:07:20;;;;;;;;;;;19.40;99.90;;;;;;5054827;28;1000;-52
2021/10/29 18:09:47;;;;;;;;;;;19.20;99.90;;;;;;5056829;28;1000;-52
2021/10/29 18:12:19;;;;;;;;;;;19.10;99.90;;;;;;5052672;28;1647;-52
2021/10/29 18:15:33;;;;;;;;;;;19.00;99.90;;;;;;5028040;28;1522;-52
2021/10/29 18:18:13;;;;;;;;;;;18.90;99.90;;;;;;5008728;28;1232;-52
2021/10/29 18:20:39;;;;;;;;;;;18.80;99.90;;;;;;5056318;28;1445;-52
2021/10/29 18:23:05;;;;;;;;;;;18.80;99.90;;;;;;5055733;28;1914;-52
2021/10/29 18:25:31;;;;;;;;;;;18.70;99.90;;;;;;5056473;28;1040;-52
2021/10/29 18:27:57;;;;;;;;;;;18.60;99.90;;;;;;5056090;28;1469;-52
2021/10/29 18:30:25;;;;;;;;;;;18.60;99.90;;;;;;5057616;28;969;-52
2021/10/29 18:32:53;;;;;;;;;;;18.60;99.90;;;;;;5057668;28;919;-52
2021/10/29 18:35:20;;;;;;;;;;;18.50;99.90;;;;;;5056788;28;868;-51
2021/10/29 18:37:46;;;;;;;;;;;18.50;99.90;;;;;;5057367;28;766;-51
2021/10/29 18:40:12;;;;;;;;;;;18.50;99.90;;;;;;5057308;28;750;-51
2021/10/29 18:42:38;;;;;;;;;;;18.50;99.90;;;;;;5057324;28;985;-51
2021/10/29 18:45:05;;;;;;;;;;;18.50;99.90;;;;;;5057211;28;1910;-51
2021/10/29 18:47:31;;;;;;;;;;;18.60;99.90;;;;;;5056587;28;1101;-51
2021/10/29 18:49:56;;;;;;;;;;;18.60;99.90;;;;;;5057282;28;908;-51
2021/10/29 18:52:25;;;;;;;;;;;18.60;99.90;;;;;;5057139;28;1052;-51
2021/10/29 18:54:52;;;;;;;;;;;18.70;99.90;;;;;;5019871;28;1132;-52
2021/10/29 18:57:18;;;;;;;;;;;18.70;99.90;;;;;;5057456;28;892;-52
2021/10/29 18:59:45;;;;;;;;;;;18.70;99.90;;;;;;5054469;28;1176;-52
2021/10/29 19:02:18;;;;;;;;;;;18.80;99.90;;;;;;5056525;28;872;-52
2021/10/29 19:04:44;;;;;;;;;;;18.80;99.90;;;;;;5022884;28;1954;-52
2021/10/29 19:07:13;;;;;;;;;;;18.80;99.90;;;;;;5057122;28;956;-52
2021/10/29 19:09:40;;;;;;;;;;;18.80;99.90;;;;;;5056006;28;1041;-52
2021/10/29 19:12:06;;;;;;;;;;;18.80;99.90;;;;;;5056248;28;1327;-52
2021/10/29 19:14:33;;;;;;;;;;;18.80;99.90;;;;;;5056073;28;1242;-52
2021/10/29 19:17:00;;;;;;;;;;;18.80;99.90;;;;;;5055273;28;1259;-52
2021/10/29 19:19:27;;;;;;;;;;;18.80;99.90;;;;;;5055728;28;1389;-52
2021/10/29 19:21:55;;;;;;;;;;;18.80;99.90;;;;;;5054404;28;765;-51
2021/10/29 19:24:21;;;;;;;;;;;18.80;99.90;;;;;;5039300;28;1906;-52
2021/10/29 19:26:47;;;;;;;;;;;18.80;99.90;;;;;;5006200;28;987;-51
2021/10/29 19:29:13;;;;;;;;;;;18.80;99.90;;;;;;5054679;28;1252;-51